sensor_id;sensor_type;location;lat;lon;timestamp;pressure;altitude;pressure_sealevel;temperature;humidity
15646;BME280;7922;43.622;1.476;2023-03-02T00:00:13;100255.69;;;1.88;61.21
15646;BME280;7922;43.622;1.476;2023-03-02T00:02:39;100102.78;;;0.93;60.91
15646;BME280;7922;43.622;1.476;2023-03-02T00:05:04;100173.19;;;1.35;62.01
15646;BME280;7922;43.622;1.476;2023-03-02T00:07:33;100270.50;;;1.87;62.33
15646;BME280;7922;43.622;1.476;2023-03-02T00:09:58;100187.06;;;1.40;62.54
15646;BME280;7922;43.622;1.476;2023-03-02T00:12:26;100256.63;;;1.75;62.41
15646;BME280;7922;43.622;1.476;2023-03-02T00:14:53;100287.91;;;1.88;62.83
15646;BME280;7922;43.622;1.476;2023-03-02T00:17:18;100199.25;;;1.30;63.31
15646;BME280;7922;43.622;1.476;2023-03-02T00:19:44;100265.31;;;1.63;63.48
15646;BME280;7922;43.622;1.476;2023-03-02T00:22:09;100159.31;;;0.91;63.93
15646;BME280;7922;43.622;1.476;2023-03-02T00:24:34;100232.31;;;1.40;64.14
15646;BME280;7922;43.622;1.476;2023-03-02T00:27:00;100187.09;;;1.11;65.29
15646;BME280;7922;43.622;1.476;2023-03-02T00:29:25;100232.34;;;1.24;65.66
15646;BME280;7922;43.622;1.476;2023-03-02T00:31:51;100232.31;;;1.17;65.76
15646;BME280;7922;43.622;1.476;2023-03-02T00:34:16;100260.16;;;1.28;66.65
15646;BME280;7922;43.622;1.476;2023-03-02T00:36:41;100212.34;;;0.98;66.73
15646;BME280;7922;43.622;1.476;2023-03-02T00:39:07;100160.19;;;0.70;66.84
15646;BME280;7922;43.622;1.476;2023-03-02T00:41:32;100098.47;;;0.27;67.24
15646;BME280;7922;43.622;1.476;2023-03-02T00:43:57;100201.00;;;0.75;67.99
15646;BME280;7922;43.622;1.476;2023-03-02T00:46:23;100088.88;;;0.13;67.99
15646;BME280;7922;43.622;1.476;2023-03-02T00:48:50;100267.13;;;1.21;68.75
15646;BME280;7922;43.622;1.476;2023-03-02T00:51:15;100248.84;;;1.03;68.70
15646;BME280;7922;43.622;1.476;2023-03-02T00:53:41;100260.16;;;1.09;68.76
15646;BME280;7922;43.622;1.476;2023-03-02T00:56:08;100108.03;;;0.18;69.17
15646;BME280;7922;43.622;1.476;2023-03-02T00:58:33;100252.31;;;0.92;69.70
15646;BME280;7922;43.622;1.476;2023-03-02T01:01:05;100261.00;;;1.08;69.10
15646;BME280;7922;43.622;1.476;2023-03-02T01:03:30;100215.81;;;0.85;69.24
15646;BME280;7922;43.622;1.476;2023-03-02T01:05:56;100150.59;;;0.39;69.89
15646;BME280;7922;43.622;1.476;2023-03-02T01:08:22;100297.53;;;1.27;69.73
15646;BME280;7922;43.622;1.476;2023-03-02T01:10:47;100221.88;;;0.78;69.85
15646;BME280;7922;43.622;1.476;2023-03-02T01:13:13;100214.03;;;0.79;69.83
15646;BME280;7922;43.622;1.476;2023-03-02T01:15:38;100167.09;;;0.48;70.46
15646;BME280;7922;43.622;1.476;2023-03-02T01:18:03;100230.59;;;0.84;70.42
15646;BME280;7922;43.622;1.476;2023-03-02T01:20:29;100231.44;;;0.92;70.02
15646;BME280;7922;43.622;1.476;2023-03-02T01:22:54;100254.94;;;1.09;70.24
15646;BME280;7922;43.622;1.476;2023-03-02T01:25:20;100227.97;;;0.86;70.47
15646;BME280;7922;43.622;1.476;2023-03-02T01:27:45;100176.66;;;0.54;70.67
15646;BME280;7922;43.622;1.476;2023-03-02T01:30:11;100082.81;;;0.05;70.46
15646;BME280;7922;43.622;1.476;2023-03-02T01:32:36;100122.78;;;0.24;70.60
15646;BME280;7922;43.622;1.476;2023-03-02T01:35:02;100306.25;;;1.29;71.15
15646;BME280;7922;43.622;1.476;2023-03-02T01:37:27;100198.41;;;0.62;71.39
15646;BME280;7922;43.622;1.476;2023-03-02T01:39:52;100253.19;;;1.07;70.85
15646;BME280;7922;43.622;1.476;2023-03-02T01:42:18;100254.06;;;1.10;70.95
15646;BME280;7922;43.622;1.476;2023-03-02T01:44:49;100248.84;;;0.98;71.15
15646;BME280;7922;43.622;1.476;2023-03-02T01:47:21;100303.66;;;1.24;71.47
15646;BME280;7922;43.622;1.476;2023-03-02T01:49:52;100240.16;;;0.94;72.04
15646;BME280;7922;43.622;1.476;2023-03-02T01:52:18;100207.97;;;0.69;72.49
15646;BME280;7922;43.622;1.476;2023-03-02T01:54:44;100288.84;;;1.25;72.11
15646;BME280;7922;43.622;1.476;2023-03-02T01:57:11;100101.94;;;0.27;71.53
15646;BME280;7922;43.622;1.476;2023-03-02T01:59:38;100279.31;;;1.31;72.66
15646;BME280;7922;43.622;1.476;2023-03-02T02:02:06;100263.63;;;1.30;72.60
15646;BME280;7922;43.622;1.476;2023-03-02T02:04:35;100202.75;;;0.97;72.51
15646;BME280;7922;43.622;1.476;2023-03-02T02:07:05;100275.78;;;1.48;72.41
15646;BME280;7922;43.622;1.476;2023-03-02T02:09:34;100204.50;;;1.15;71.88
15646;BME280;7922;43.622;1.476;2023-03-02T02:12:01;100210.56;;;1.18;71.67
15646;BME280;7922;43.622;1.476;2023-03-02T02:14:27;100279.25;;;1.66;71.83
15646;BME280;7922;43.622;1.476;2023-03-02T02:16:52;100280.97;;;1.74;71.39
15646;BME280;7922;43.622;1.476;2023-03-02T02:20:17;100194.06;;;1.26;71.46
15646;BME280;7922;43.622;1.476;2023-03-02T02:22:26;100226.19;;;1.58;71.22
15646;BME280;7922;43.622;1.476;2023-03-02T02:25:03;100207.94;;;1.46;72.00
15646;BME280;7922;43.622;1.476;2023-03-02T02:27:31;100195.75;;;1.34;71.43
15646;BME280;7922;43.622;1.476;2023-03-02T02:29:57;100203.59;;;1.39;71.36
15646;BME280;7922;43.622;1.476;2023-03-02T02:32:25;100193.16;;;1.47;71.42
15646;BME280;7922;43.622;1.476;2023-03-02T02:35:00;100184.44;;;1.41;71.15
15646;BME280;7922;43.622;1.476;2023-03-02T02:37:41;100254.84;;;1.87;71.19
15646;BME280;7922;43.622;1.476;2023-03-02T02:40:39;100253.09;;;1.86;71.83
15646;BME280;7922;43.622;1.476;2023-03-02T02:43:06;100131.44;;;1.09;71.49
15646;BME280;7922;43.622;1.476;2023-03-02T02:45:31;100161.88;;;1.22;71.77
15646;BME280;7922;43.622;1.476;2023-03-02T02:47:57;100156.66;;;1.28;71.86
15646;BME280;7922;43.622;1.476;2023-03-02T02:50:30;100233.97;;;1.74;71.84
15646;BME280;7922;43.622;1.476;2023-03-02T02:53:18;100179.25;;;1.34;72.00
15646;BME280;7922;43.622;1.476;2023-03-02T02:55:50;100084.56;;;0.81;71.87
15646;BME280;7922;43.622;1.476;2023-03-02T02:58:29;100078.50;;;0.73;71.57
15646;BME280;7922;43.622;1.476;2023-03-02T03:00:57;100162.75;;;1.24;71.83
15646;BME280;7922;43.622;1.476;2023-03-02T03:03:29;100104.56;;;0.94;71.36
15646;BME280;7922;43.622;1.476;2023-03-02T03:05:59;100023.78;;;0.44;71.64
15646;BME280;7922;43.622;1.476;2023-03-02T03:11:09;100226.19;;;1.64;71.77
15646;BME280;7922;43.622;1.476;2023-03-02T03:13:36;100174.03;;;1.40;71.55
15646;BME280;7922;43.622;1.476;2023-03-02T03:16:03;100071.53;;;0.81;70.88
15646;BME280;7922;43.622;1.476;2023-03-02T03:18:30;100215.75;;;1.60;71.20
15646;BME280;7922;43.622;1.476;2023-03-02T03:20:55;100036.81;;;0.53;71.35
15646;BME280;7922;43.622;1.476;2023-03-02T03:23:21;100168.81;;;1.32;71.56
15646;BME280;7922;43.622;1.476;2023-03-02T03:25:46;100019.44;;;0.46;71.25
15646;BME280;7922;43.622;1.476;2023-03-02T03:28:11;100220.97;;;1.67;71.57
15646;BME280;7922;43.622;1.476;2023-03-02T03:30:36;100183.59;;;1.46;71.33
15646;BME280;7922;43.622;1.476;2023-03-02T03:33:02;100186.19;;;1.50;70.85
15646;BME280;7922;43.622;1.476;2023-03-02T03:35:27;100168.84;;;1.31;71.01
15646;BME280;7922;43.622;1.476;2023-03-02T03:37:52;100020.28;;;0.53;71.52
15646;BME280;7922;43.622;1.476;2023-03-02T03:40:18;100051.56;;;0.43;71.45
15646;BME280;7922;43.622;1.476;2023-03-02T03:42:43;100211.41;;;1.53;71.54
15646;BME280;7922;43.622;1.476;2023-03-02T03:45:08;100149.72;;;1.21;71.79
15646;BME280;7922;43.622;1.476;2023-03-02T03:47:34;100218.38;;;1.54;71.78
15646;BME280;7922;43.622;1.476;2023-03-02T03:50:00;100236.59;;;1.72;71.46
15646;BME280;7922;43.622;1.476;2023-03-02T03:52:25;100233.13;;;1.62;71.93
15646;BME280;7922;43.622;1.476;2023-03-02T03:54:50;100272.22;;;1.95;71.56
15646;BME280;7922;43.622;1.476;2023-03-02T03:57:16;100149.69;;;1.26;71.68
15646;BME280;7922;43.622;1.476;2023-03-02T03:59:41;100262.69;;;1.89;71.58
15646;BME280;7922;43.622;1.476;2023-03-02T04:02:06;100242.69;;;1.79;71.93
15646;BME280;7922;43.622;1.476;2023-03-02T04:04:33;100179.25;;;1.40;71.43
15646;BME280;7922;43.622;1.476;2023-03-02T04:06:59;100186.19;;;1.47;72.05
15646;BME280;7922;43.622;1.476;2023-03-02T04:09:25;100261.81;;;1.90;72.03
15646;BME280;7922;43.622;1.476;2023-03-02T04:11:53;100027.28;;;0.47;71.62
15646;BME280;7922;43.622;1.476;2023-03-02T04:14:20;100265.28;;;1.90;72.11
15646;BME280;7922;43.622;1.476;2023-03-02T04:16:46;100218.34;;;1.63;71.91
15646;BME280;7922;43.622;1.476;2023-03-02T04:19:12;100249.63;;;1.86;72.09
15646;BME280;7922;43.622;1.476;2023-03-02T04:21:43;100160.09;;;1.36;71.57
15646;BME280;7922;43.622;1.476;2023-03-02T04:24:09;100128.81;;;1.19;71.73
15646;BME280;7922;43.622;1.476;2023-03-02T04:26:37;100244.38;;;1.84;71.70
15646;BME280;7922;43.622;1.476;2023-03-02T04:29:03;100244.41;;;1.83;71.97
15646;BME280;7922;43.622;1.476;2023-03-02T04:31:28;100268.72;;;2.05;72.36
15646;BME280;7922;43.622;1.476;2023-03-02T04:33:54;100167.06;;;1.40;71.76
15646;BME280;7922;43.622;1.476;2023-03-02T04:36:19;100143.63;;;1.20;72.33
15646;BME280;7922;43.622;1.476;2023-03-02T04:38:45;100227.03;;;1.68;72.14
15646;BME280;7922;43.622;1.476;2023-03-02T04:41:11;100187.06;;;1.49;72.28
15646;BME280;7922;43.622;1.476;2023-03-02T04:43:36;100276.53;;;2.03;72.42
15646;BME280;7922;43.622;1.476;2023-03-02T04:46:01;100232.22;;;1.74;72.15
15646;BME280;7922;43.622;1.476;2023-03-02T04:48:27;100180.97;;;1.42;72.16
15646;BME280;7922;43.622;1.476;2023-03-02T04:50:52;100042.84;;;0.72;72.06
15646;BME280;7922;43.622;1.476;2023-03-02T04:53:17;100231.38;;;1.71;72.39
15646;BME280;7922;43.622;1.476;2023-03-02T04:55:43;100158.38;;;1.29;71.92
15646;BME280;7922;43.622;1.476;2023-03-02T04:58:08;100242.69;;;1.82;72.30
15646;BME280;7922;43.622;1.476;2023-03-02T05:00:33;100173.16;;;1.46;71.96
15646;BME280;7922;43.622;1.476;2023-03-02T05:03:02;100108.88;;;1.03;72.22
15646;BME280;7922;43.622;1.476;2023-03-02T05:05:29;100247.00;;;1.81;71.91
15646;BME280;7922;43.622;1.476;2023-03-02T05:07:54;100227.00;;;1.74;71.99
15646;BME280;7922;43.622;1.476;2023-03-02T05:10:21;100151.44;;;1.28;72.15
15646;BME280;7922;43.622;1.476;2023-03-02T05:12:47;100043.72;;;0.71;71.90
15646;BME280;7922;43.622;1.476;2023-03-02T05:15:12;100276.59;;;2.00;71.87
15646;BME280;7922;43.622;1.476;2023-03-02T05:17:37;100095.81;;;1.02;71.23
15646;BME280;7922;43.622;1.476;2023-03-02T05:20:03;100251.34;;;1.88;71.77
15646;BME280;7922;43.622;1.476;2023-03-02T05:22:28;100232.22;;;1.89;71.79
15646;BME280;7922;43.622;1.476;2023-03-02T05:24:53;100197.47;;;1.57;71.08
15646;BME280;7922;43.622;1.476;2023-03-02T05:27:19;100044.59;;;0.70;70.86
15646;BME280;7922;43.622;1.476;2023-03-02T05:29:44;99770.47;;;-0.90;71.29
15646;BME280;7922;43.622;1.476;2023-03-02T05:32:11;100141.03;;;1.24;70.67
15646;BME280;7922;43.622;1.476;2023-03-02T05:34:36;100131.44;;;1.18;71.18
15646;BME280;7922;43.622;1.476;2023-03-02T05:37:01;100213.13;;;1.64;71.13
15646;BME280;7922;43.622;1.476;2023-03-02T05:39:27;100253.13;;;1.82;71.14
15646;BME280;7922;43.622;1.476;2023-03-02T05:41:52;100277.47;;;1.91;70.70
15646;BME280;7922;43.622;1.476;2023-03-02T05:44:17;100030.72;;;0.54;70.93
15646;BME280;7922;43.622;1.476;2023-03-02T05:46:43;100247.03;;;1.74;70.92
15646;BME280;7922;43.622;1.476;2023-03-02T05:49:08;100208.81;;;1.43;71.01
15646;BME280;7922;43.622;1.476;2023-03-02T05:51:33;100150.59;;;1.17;71.16
15646;BME280;7922;43.622;1.476;2023-03-02T05:53:58;100313.09;;;2.22;71.28
15646;BME280;7922;43.622;1.476;2023-03-02T05:56:24;100269.66;;;1.82;70.91
15646;BME280;7922;43.622;1.476;2023-03-02T05:58:49;100212.28;;;1.53;70.68
15646;BME280;7922;43.622;1.476;2023-03-02T06:01:14;100108.88;;;0.95;71.13
15646;BME280;7922;43.622;1.476;2023-03-02T06:03:40;100320.06;;;2.20;71.04
15646;BME280;7922;43.622;1.476;2023-03-02T06:06:05;100245.28;;;1.82;71.09
15646;BME280;7922;43.622;1.476;2023-03-02T06:08:30;100280.03;;;2.02;70.79
15646;BME280;7922;43.622;1.476;2023-03-02T06:10:56;100266.16;;;1.88;70.69
15646;BME280;7922;43.622;1.476;2023-03-02T06:13:21;100319.16;;;2.27;71.02
15646;BME280;7922;43.622;1.476;2023-03-02T06:15:47;100272.22;;;1.95;70.82
15646;BME280;7922;43.622;1.476;2023-03-02T06:18:12;100279.19;;;1.99;70.64
15646;BME280;7922;43.622;1.476;2023-03-02T06:20:38;100273.13;;;1.97;70.88
15646;BME280;7922;43.622;1.476;2023-03-02T06:23:03;100300.06;;;2.11;70.90
15646;BME280;7922;43.622;1.476;2023-03-02T06:25:28;100340.06;;;2.28;70.70
15646;BME280;7922;43.622;1.476;2023-03-02T06:27:53;100121.91;;;1.06;70.68
15646;BME280;7922;43.622;1.476;2023-03-02T06:30:22;100330.50;;;2.24;71.00
15646;BME280;7922;43.622;1.476;2023-03-02T06:32:48;100330.47;;;2.32;70.78
15646;BME280;7922;43.622;1.476;2023-03-02T06:35:14;100219.22;;;1.57;70.94
15646;BME280;7922;43.622;1.476;2023-03-02T06:37:39;100281.78;;;1.96;70.74
15646;BME280;7922;43.622;1.476;2023-03-02T06:40:05;100170.56;;;1.35;70.02
15646;BME280;7922;43.622;1.476;2023-03-02T06:42:31;100277.47;;;1.91;70.07
15646;BME280;7922;43.622;1.476;2023-03-02T06:44:56;100248.78;;;1.68;69.58
15646;BME280;7922;43.622;1.476;2023-03-02T06:47:22;100267.91;;;1.90;69.94
15646;BME280;7922;43.622;1.476;2023-03-02T06:49:47;100276.59;;;2.00;70.04
15646;BME280;7922;43.622;1.476;2023-03-02T06:52:13;100284.38;;;2.06;70.10
15646;BME280;7922;43.622;1.476;2023-03-02T06:54:38;100273.09;;;1.98;69.90
15646;BME280;7922;43.622;1.476;2023-03-02T06:57:04;100333.94;;;2.35;69.57
15646;BME280;7922;43.622;1.476;2023-03-02T06:59:29;100307.00;;;2.13;69.17
15646;BME280;7922;43.622;1.476;2023-03-02T07:01:54;100266.16;;;1.92;69.06
15646;BME280;7922;43.622;1.476;2023-03-02T07:04:20;100339.19;;;2.28;69.43
15646;BME280;7922;43.622;1.476;2023-03-02T07:06:45;100351.38;;;2.38;68.60
15646;BME280;7922;43.622;1.476;2023-03-02T07:09:11;100376.59;;;2.50;68.84
15646;BME280;7922;43.622;1.476;2023-03-02T07:11:36;100300.06;;;2.06;68.44
15646;BME280;7922;43.622;1.476;2023-03-02T07:14:02;100379.22;;;2.54;68.45
15646;BME280;7922;43.622;1.476;2023-03-02T07:16:27;100192.28;;;1.44;68.25
15646;BME280;7922;43.622;1.476;2023-03-02T07:18:52;100204.44;;;1.52;67.84
15646;BME280;7922;43.622;1.476;2023-03-02T07:21:18;100209.63;;;1.59;67.84
15646;BME280;7922;43.622;1.476;2023-03-02T07:23:43;100333.13;;;2.26;67.75
15646;BME280;7922;43.622;1.476;2023-03-02T07:26:08;100392.25;;;2.62;67.70
15646;BME280;7922;43.622;1.476;2023-03-02T07:28:35;100339.16;;;2.32;68.00
15646;BME280;7922;43.622;1.476;2023-03-02T07:31:01;100308.75;;;2.13;67.01
15646;BME280;7922;43.622;1.476;2023-03-02T07:33:26;100325.28;;;2.29;67.02
15646;BME280;7922;43.622;1.476;2023-03-02T07:35:51;100334.84;;;2.24;66.91
15646;BME280;7922;43.622;1.476;2023-03-02T07:38:16;100400.97;;;2.64;67.06
15646;BME280;7922;43.622;1.476;2023-03-02T07:40:42;100273.09;;;1.92;66.66
15646;BME280;7922;43.622;1.476;2023-03-02T07:43:08;100332.22;;;2.28;66.77
15646;BME280;7922;43.622;1.476;2023-03-02T07:45:35;100313.06;;;2.29;66.64
15646;BME280;7922;43.622;1.476;2023-03-02T07:48:00;100355.69;;;2.51;65.74
15646;BME280;7922;43.622;1.476;2023-03-02T07:50:26;100406.09;;;2.88;65.30
15646;BME280;7922;43.622;1.476;2023-03-02T07:52:51;100317.38;;;2.39;65.46
15646;BME280;7922;43.622;1.476;2023-03-02T07:55:16;100328.72;;;2.37;65.02
15646;BME280;7922;43.622;1.476;2023-03-02T07:57:41;100391.31;;;2.78;64.74
15646;BME280;7922;43.622;1.476;2023-03-02T08:00:07;100310.44;;;2.37;64.68
15646;BME280;7922;43.622;1.476;2023-03-02T08:02:33;100347.72;;;2.76;64.30
15646;BME280;7922;43.622;1.476;2023-03-02T08:04:58;100169.56;;;1.82;63.50
15646;BME280;7922;43.622;1.476;2023-03-02T08:07:23;100323.28;;;2.83;63.12
15646;BME280;7922;43.622;1.476;2023-03-02T08:09:49;100382.31;;;3.31;63.04
15646;BME280;7922;43.622;1.476;2023-03-02T08:12:14;100318.03;;;2.87;62.60
15646;BME280;7922;43.622;1.476;2023-03-02T08:14:40;100241.50;;;2.50;62.06
15646;BME280;7922;43.622;1.476;2023-03-02T08:17:06;100317.19;;;2.84;61.77
15646;BME280;7922;43.622;1.476;2023-03-02T08:19:32;100260.69;;;2.52;62.24
15646;BME280;7922;43.622;1.476;2023-03-02T08:21:57;100152.03;;;1.99;61.30
15646;BME280;7922;43.622;1.476;2023-03-02T08:24:22;100272.75;;;2.78;61.89
15646;BME280;7922;43.622;1.476;2023-03-02T08:26:48;100355.41;;;3.12;61.52
15646;BME280;7922;43.622;1.476;2023-03-02T08:29:13;100410.13;;;3.48;62.12
15646;BME280;7922;43.622;1.476;2023-03-02T08:31:39;100348.47;;;2.98;61.45
15646;BME280;7922;43.622;1.476;2023-03-02T08:34:04;100361.47;;;3.14;61.43
15646;BME280;7922;43.622;1.476;2023-03-02T08:36:29;100354.50;;;3.17;61.60
15646;BME280;7922;43.622;1.476;2023-03-02T08:38:54;100173.72;;;2.16;61.72
15646;BME280;7922;43.622;1.476;2023-03-02T08:41:22;100246.72;;;2.58;61.64
15646;BME280;7922;43.622;1.476;2023-03-02T08:43:48;100359.72;;;3.15;61.61
15646;BME280;7922;43.622;1.476;2023-03-02T08:46:15;100419.78;;;3.43;61.85
15646;BME280;7922;43.622;1.476;2023-03-02T08:48:41;100247.63;;;2.48;61.17
15646;BME280;7922;43.622;1.476;2023-03-02T08:51:11;100195.47;;;2.25;61.49
15646;BME280;7922;43.622;1.476;2023-03-02T08:53:40;100379.66;;;3.39;61.47
15646;BME280;7922;43.622;1.476;2023-03-02T08:56:18;100371.88;;;3.27;61.17
15646;BME280;7922;43.622;1.476;2023-03-02T08:58:46;100231.06;;;2.52;61.10
15646;BME280;7922;43.622;1.476;2023-03-02T09:01:15;100349.19;;;3.26;61.26
15646;BME280;7922;43.622;1.476;2023-03-02T09:03:41;100400.50;;;3.51;61.05
15646;BME280;7922;43.622;1.476;2023-03-02T09:06:07;100377.81;;;3.50;60.58
15646;BME280;7922;43.622;1.476;2023-03-02T09:08:32;100241.38;;;2.73;60.50
15646;BME280;7922;43.622;1.476;2023-03-02T09:10:57;100418.41;;;4.06;61.04
15646;BME280;7922;43.622;1.476;2023-03-02T09:13:23;100364.63;;;3.62;60.09
15646;BME280;7922;43.622;1.476;2023-03-02T09:15:48;100382.97;;;3.64;61.01
15646;BME280;7922;43.622;1.476;2023-03-02T09:18:13;100362.97;;;3.52;60.24
15646;BME280;7922;43.622;1.476;2023-03-02T09:20:38;100126.66;;;2.26;59.98
15646;BME280;7922;43.622;1.476;2023-03-02T09:23:04;100326.31;;;3.51;59.94
15646;BME280;7922;43.622;1.476;2023-03-02T09:25:29;100354.06;;;3.75;59.55
15646;BME280;7922;43.622;1.476;2023-03-02T09:27:54;100362.59;;;3.95;59.97
15646;BME280;7922;43.622;1.476;2023-03-02T09:30:20;100371.38;;;3.90;60.00
15646;BME280;7922;43.622;1.476;2023-03-02T09:32:45;100327.06;;;3.62;59.63
15646;BME280;7922;43.622;1.476;2023-03-02T09:35:10;100380.13;;;3.87;59.81
15646;BME280;7922;43.622;1.476;2023-03-02T09:37:35;100345.19;;;3.88;58.99
15646;BME280;7922;43.622;1.476;2023-03-02T09:40:01;100387.00;;;3.99;60.20
15646;BME280;7922;43.622;1.476;2023-03-02T09:45:18;100266.91;;;3.54;58.06
15646;BME280;7922;43.622;1.476;2023-03-02T09:50:52;100322.31;;;4.02;59.13
15646;BME280;7922;43.622;1.476;2023-03-02T09:55:52;100232.59;;;3.80;58.29
15646;BME280;7922;43.622;1.476;2023-03-02T09:58:19;100373.97;;;4.74;58.35
15646;BME280;7922;43.622;1.476;2023-03-02T10:00:46;100374.25;;;4.51;58.69
15646;BME280;7922;43.622;1.476;2023-03-02T10:05:45;100409.81;;;4.75;58.84
15646;BME280;7922;43.622;1.476;2023-03-02T10:08:13;100381.16;;;4.57;59.05
15646;BME280;7922;43.622;1.476;2023-03-02T10:13:28;100447.59;;;4.62;59.80
15646;BME280;7922;43.622;1.476;2023-03-02T10:21:36;100413.63;;;4.48;60.10
15646;BME280;7922;43.622;1.476;2023-03-02T10:26:38;100293.53;;;3.99;59.99
15646;BME280;7922;43.622;1.476;2023-03-02T10:29:32;100440.41;;;4.79;60.19
15646;BME280;7922;43.622;1.476;2023-03-02T10:34:36;100278.13;;;3.69;60.10
15646;BME280;7922;43.622;1.476;2023-03-02T10:37:09;100247.72;;;3.54;60.37
15646;BME280;7922;43.622;1.476;2023-03-02T10:39:36;100230.19;;;3.60;60.15
15646;BME280;7922;43.622;1.476;2023-03-02T10:42:03;100362.06;;;4.46;60.01
15646;BME280;7922;43.622;1.476;2023-03-02T10:44:33;100239.63;;;3.74;60.13
15646;BME280;7922;43.622;1.476;2023-03-02T10:47:00;100445.69;;;4.75;60.78
15646;BME280;7922;43.622;1.476;2023-03-02T10:49:31;100416.84;;;4.73;60.65
15646;BME280;7922;43.622;1.476;2023-03-02T10:52:08;100296.94;;;4.09;59.79
15646;BME280;7922;43.622;1.476;2023-03-02T10:54:36;100398.47;;;4.73;60.24
15646;BME280;7922;43.622;1.476;2023-03-02T10:57:04;100414.06;;;4.87;60.12
15646;BME280;7922;43.622;1.476;2023-03-02T10:59:45;100401.94;;;4.77;59.97
15646;BME280;7922;43.622;1.476;2023-03-02T11:02:22;100224.63;;;3.88;59.75
15646;BME280;7922;43.622;1.476;2023-03-02T11:04:57;100438.16;;;5.20;59.79
15646;BME280;7922;43.622;1.476;2023-03-02T11:07:26;100432.75;;;5.30;59.45
15646;BME280;7922;43.622;1.476;2023-03-02T11:10:02;100422.06;;;5.43;59.29
15646;BME280;7922;43.622;1.476;2023-03-02T11:12:30;100412.34;;;5.48;58.48
15646;BME280;7922;43.622;1.476;2023-03-02T11:17:40;100427.28;;;5.44;59.10
15646;BME280;7922;43.622;1.476;2023-03-02T11:20:19;100217.66;;;4.56;59.07
15646;BME280;7922;43.622;1.476;2023-03-02T11:23:47;100364.00;;;5.61;58.60
15646;BME280;7922;43.622;1.476;2023-03-02T11:25:49;100365.84;;;5.54;57.87
15646;BME280;7922;43.622;1.476;2023-03-02T11:28:25;100428.00;;;6.13;57.67
15646;BME280;7922;43.622;1.476;2023-03-02T11:30:56;100281.63;;;5.08;57.84
15646;BME280;7922;43.622;1.476;2023-03-02T11:33:27;100390.13;;;5.70;58.00
15646;BME280;7922;43.622;1.476;2023-03-02T11:36:01;100404.31;;;6.14;57.39
15646;BME280;7922;43.622;1.476;2023-03-02T11:38:39;100334.63;;;5.89;57.10
15646;BME280;7922;43.622;1.476;2023-03-02T11:41:28;100251.06;;;5.05;57.87
15646;BME280;7922;43.622;1.476;2023-03-02T11:43:57;100347.25;;;5.67;58.09
15646;BME280;7922;43.622;1.476;2023-03-02T11:46:27;100417.97;;;6.36;56.66
15646;BME280;7922;43.622;1.476;2023-03-02T11:48:56;100286.50;;;5.85;56.10
15646;BME280;7922;43.622;1.476;2023-03-02T11:51:29;100351.19;;;6.42;56.13
15646;BME280;7922;43.622;1.476;2023-03-02T11:54:00;100224.66;;;5.63;55.99
15646;BME280;7922;43.622;1.476;2023-03-02T11:56:29;100263.03;;;5.73;55.53
15646;BME280;7922;43.622;1.476;2023-03-02T11:58:58;100254.91;;;5.37;56.34
15646;BME280;7922;43.622;1.476;2023-03-02T12:01:25;100243.81;;;5.69;55.78
15646;BME280;7922;43.622;1.476;2023-03-02T12:03:52;100291.38;;;6.07;56.09
15646;BME280;7922;43.622;1.476;2023-03-02T12:08:48;100359.28;;;6.76;55.48
15646;BME280;7922;43.622;1.476;2023-03-02T12:13:58;100340.84;;;6.76;54.92
15646;BME280;7922;43.622;1.476;2023-03-02T12:21:54;100358.13;;;6.46;55.25
15646;BME280;7922;43.622;1.476;2023-03-02T12:29:43;100353.22;;;6.71;54.79
15646;BME280;7922;43.622;1.476;2023-03-02T12:32:23;100359.03;;;6.45;55.29
15646;BME280;7922;43.622;1.476;2023-03-02T12:35:18;100356.00;;;6.65;54.91
15646;BME280;7922;43.622;1.476;2023-03-02T12:37:48;100376.53;;;6.91;54.88
15646;BME280;7922;43.622;1.476;2023-03-02T12:51:02;100209.84;;;5.59;52.87
15646;BME280;7922;43.622;1.476;2023-03-02T12:53:28;100215.13;;;5.59;53.45
15646;BME280;7922;43.622;1.476;2023-03-02T12:55:53;100305.13;;;6.21;53.19
15646;BME280;7922;43.622;1.476;2023-03-02T12:58:22;100286.94;;;6.10;53.88
15646;BME280;7922;43.622;1.476;2023-03-02T13:00:51;100196.31;;;5.80;53.40
15646;BME280;7922;43.622;1.476;2023-03-02T13:03:17;100137.50;;;5.41;53.10
15646;BME280;7922;43.622;1.476;2023-03-02T13:05:42;100191.09;;;5.78;53.28
15646;BME280;7922;43.622;1.476;2023-03-02T13:08:16;100261.94;;;6.31;52.92
15646;BME280;7922;43.622;1.476;2023-03-02T13:10:51;100327.00;;;6.66;52.61
15646;BME280;7922;43.622;1.476;2023-03-02T13:13:20;100340.00;;;6.75;53.37
15646;BME280;7922;43.622;1.476;2023-03-02T13:15:53;100366.56;;;7.04;53.70
15646;BME280;7922;43.622;1.476;2023-03-02T13:18:20;100156.25;;;5.69;53.20
15646;BME280;7922;43.622;1.476;2023-03-02T13:20:47;100273.22;;;6.38;53.14
15646;BME280;7922;43.622;1.476;2023-03-02T13:23:14;100331.41;;;6.66;52.84
15646;BME280;7922;43.622;1.476;2023-03-02T13:25:54;100328.28;;;6.47;53.17
15646;BME280;7922;43.622;1.476;2023-03-02T13:31:20;100314.50;;;6.36;53.12
15646;BME280;7922;43.622;1.476;2023-03-02T13:33:45;100071.09;;;4.88;53.20
15646;BME280;7922;43.622;1.476;2023-03-02T13:36:22;100299.78;;;6.24;53.78
15646;BME280;7922;43.622;1.476;2023-03-02T13:38:50;100344.19;;;6.41;54.71
15646;BME280;7922;43.622;1.476;2023-03-02T13:41:25;100321.44;;;6.38;54.33
15646;BME280;7922;43.622;1.476;2023-03-02T13:43:50;100345.88;;;6.45;54.77
15646;BME280;7922;43.622;1.476;2023-03-02T13:48:55;100340.50;;;6.51;53.88
15646;BME280;7922;43.622;1.476;2023-03-02T13:51:22;100289.31;;;6.22;54.27
15646;BME280;7922;43.622;1.476;2023-03-02T13:53:56;100291.19;;;6.16;54.70
15646;BME280;7922;43.622;1.476;2023-03-02T13:56:27;100316.81;;;6.51;54.10
15646;BME280;7922;43.622;1.476;2023-03-02T13:58:52;100311.78;;;6.39;53.98
15646;BME280;7922;43.622;1.476;2023-03-02T14:01:18;100303.97;;;6.34;54.12
15646;BME280;7922;43.622;1.476;2023-03-02T14:03:43;100322.19;;;6.45;54.50
15646;BME280;7922;43.622;1.476;2023-03-02T14:06:08;100291.78;;;6.30;54.37
15646;BME280;7922;43.622;1.476;2023-03-02T14:08:34;100178.41;;;5.54;55.04
15646;BME280;7922;43.622;1.476;2023-03-02T14:11:02;100270.25;;;6.11;54.82
15646;BME280;7922;43.622;1.476;2023-03-02T14:13:38;100141.13;;;5.35;55.42